sensor_id;sensor_type;location;lat;lon;timestamp;P1;durP1;ratioP1;P2;durP2;ratioP2
55913;SDS011;58179;48.776;9.124;2024-01-30T00:01:46;14.82;;;10.00;;
55913;SDS011;58179;48.776;9.124;2024-01-30T00:04:12;12.88;;;9.07;;
55913;SDS011;58179;48.776;9.124;2024-01-30T00:06:40;15.15;;;9.65;;
55913;SDS011;58179;48.776;9.124;2024-01-30T00:09:06;11.65;;;8.38;;
55913;SDS011;58179;48.776;9.124;2024-01-30T00:11:32;13.35;;;9.50;;
55913;SDS011;58179;48.776;9.124;2024-01-30T00:13:59;12.87;;;9.23;;
55913;SDS011;58179;48.776;9.124;2024-01-30T00:16:25;14.25;;;9.77;;
55913;SDS011;58179;48.776;9.124;2024-01-30T00:18:51;12.27;;;9.23;;
55913;SDS011;58179;48.776;9.124;2024-01-30T00:21:18;15.38;;;9.93;;
55913;SDS011;58179;48.776;9.124;2024-01-30T00:23:45;16.48;;;10.70;;
55913;SDS011;58179;48.776;9.124;2024-01-30T00:26:12;21.27;;;11.70;;
55913;SDS011;58179;48.776;9.124;2024-01-30T00:28:39;20.42;;;12.73;;
55913;SDS011;58179;48.776;9.124;2024-01-30T00:31:06;20.15;;;11.88;;
55913;SDS011;58179;48.776;9.124;2024-01-30T00:33:34;20.02;;;11.15;;
55913;SDS011;58179;48.776;9.124;2024-01-30T00:36:00;18.17;;;11.60;;
55913;SDS011;58179;48.776;9.124;2024-01-30T00:38:27;16.05;;;11.15;;
55913;SDS011;58179;48.776;9.124;2024-01-30T00:40:54;18.27;;;12.13;;
55913;SDS011;58179;48.776;9.124;2024-01-30T00:43:21;17.67;;;11.18;;
55913;SDS011;58179;48.776;9.124;2024-01-30T00:45:47;14.37;;;10.50;;
55913;SDS011;58179;48.776;9.124;2024-01-30T00:48:13;15.57;;;10.68;;
55913;SDS011;58179;48.776;9.124;2024-01-30T00:50:39;19.58;;;11.80;;
55913;SDS011;58179;48.776;9.124;2024-01-30T00:53:05;16.65;;;10.93;;
55913;SDS011;58179;48.776;9.124;2024-01-30T00:55:31;17.83;;;11.43;;
55913;SDS011;58179;48.776;9.124;2024-01-30T00:57:59;20.13;;;11.23;;
55913;SDS011;58179;48.776;9.124;2024-01-30T01:00:25;17.20;;;11.77;;
55913;SDS011;58179;48.776;9.124;2024-01-30T01:02:54;18.35;;;11.65;;
55913;SDS011;58179;48.776;9.124;2024-01-30T01:05:20;19.05;;;12.50;;
55913;SDS011;58179;48.776;9.124;2024-01-30T01:07:47;19.48;;;12.18;;
55913;SDS011;58179;48.776;9.124;2024-01-30T01:10:13;16.02;;;11.40;;
55913;SDS011;58179;48.776;9.124;2024-01-30T01:12:40;14.70;;;9.98;;
55913;SDS011;58179;48.776;9.124;2024-01-30T01:15:08;14.00;;;9.55;;
55913;SDS011;58179;48.776;9.124;2024-01-30T01:17:35;14.53;;;10.00;;
55913;SDS011;58179;48.776;9.124;2024-01-30T01:20:01;15.17;;;10.67;;
55913;SDS011;58179;48.776;9.124;2024-01-30T01:22:28;19.48;;;13.05;;
55913;SDS011;58179;48.776;9.124;2024-01-30T01:24:54;23.90;;;13.90;;
55913;SDS011;58179;48.776;9.124;2024-01-30T01:27:20;19.50;;;13.02;;
55913;SDS011;58179;48.776;9.124;2024-01-30T01:29:46;19.77;;;12.10;;
55913;SDS011;58179;48.776;9.124;2024-01-30T01:32:14;18.35;;;11.65;;
55913;SDS011;58179;48.776;9.124;2024-01-30T01:34:41;18.13;;;11.15;;
55913;SDS011;58179;48.776;9.124;2024-01-30T01:37:07;19.60;;;11.68;;
55913;SDS011;58179;48.776;9.124;2024-01-30T01:39:33;17.55;;;11.57;;
55913;SDS011;58179;48.776;9.124;2024-01-30T01:41:59;17.52;;;11.27;;
55913;SDS011;58179;48.776;9.124;2024-01-30T01:44:25;18.30;;;11.65;;
55913;SDS011;58179;48.776;9.124;2024-01-30T01:46:51;16.85;;;11.30;;
55913;SDS011;58179;48.776;9.124;2024-01-30T01:49:20;18.63;;;11.90;;
55913;SDS011;58179;48.776;9.124;2024-01-30T01:51:49;22.90;;;12.10;;
55913;SDS011;58179;48.776;9.124;2024-01-30T01:54:17;18.05;;;11.50;;
55913;SDS011;58179;48.776;9.124;2024-01-30T01:56:43;22.08;;;11.70;;
55913;SDS011;58179;48.776;9.124;2024-01-30T01:59:09;15.63;;;10.43;;
55913;SDS011;58179;48.776;9.124;2024-01-30T02:01:36;17.77;;;11.37;;
55913;SDS011;58179;48.776;9.124;2024-01-30T02:04:02;15.45;;;10.27;;
55913;SDS011;58179;48.776;9.124;2024-01-30T02:06:30;13.63;;;9.70;;
55913;SDS011;58179;48.776;9.124;2024-01-30T02:08:57;16.80;;;10.38;;
55913;SDS011;58179;48.776;9.124;2024-01-30T02:11:23;19.13;;;12.73;;
55913;SDS011;58179;48.776;9.124;2024-01-30T02:13:49;22.63;;;12.05;;
55913;SDS011;58179;48.776;9.124;2024-01-30T02:16:16;17.83;;;11.90;;
55913;SDS011;58179;48.776;9.124;2024-01-30T02:18:42;16.88;;;11.18;;
55913;SDS011;58179;48.776;9.124;2024-01-30T02:21:13;18.55;;;11.98;;
55913;SDS011;58179;48.776;9.124;2024-01-30T02:23:40;17.65;;;11.30;;
55913;SDS011;58179;48.776;9.124;2024-01-30T02:26:07;16.02;;;11.02;;
55913;SDS011;58179;48.776;9.124;2024-01-30T02:28:34;20.95;;;12.43;;
55913;SDS011;58179;48.776;9.124;2024-01-30T02:31:00;18.77;;;11.40;;
55913;SDS011;58179;48.776;9.124;2024-01-30T02:33:26;20.50;;;12.30;;
55913;SDS011;58179;48.776;9.124;2024-01-30T02:35:52;21.77;;;12.85;;
55913;SDS011;58179;48.776;9.124;2024-01-30T02:38:20;19.98;;;12.23;;
55913;SDS011;58179;48.776;9.124;2024-01-30T02:40:46;21.53;;;12.57;;
55913;SDS011;58179;48.776;9.124;2024-01-30T02:43:12;19.77;;;11.80;;
55913;SDS011;58179;48.776;9.124;2024-01-30T02:45:38;15.60;;;10.85;;
55913;SDS011;58179;48.776;9.124;2024-01-30T02:48:05;12.95;;;9.43;;
55913;SDS011;58179;48.776;9.124;2024-01-30T02:50:31;16.13;;;10.30;;
55913;SDS011;58179;48.776;9.124;2024-01-30T02:52:57;17.13;;;9.95;;
55913;SDS011;58179;48.776;9.124;2024-01-30T02:55:25;16.38;;;10.00;;
55913;SDS011;58179;48.776;9.124;2024-01-30T02:57:51;14.55;;;9.63;;
55913;SDS011;58179;48.776;9.124;2024-01-30T03:00:18;13.02;;;9.00;;
55913;SDS011;58179;48.776;9.124;2024-01-30T03:02:44;13.95;;;9.30;;
55913;SDS011;58179;48.776;9.124;2024-01-30T03:05:12;13.03;;;8.93;;
55913;SDS011;58179;48.776;9.124;2024-01-30T03:07:38;16.55;;;9.93;;
55913;SDS011;58179;48.776;9.124;2024-01-30T03:10:04;14.40;;;8.82;;
55913;SDS011;58179;48.776;9.124;2024-01-30T03:12:32;14.53;;;9.43;;
55913;SDS011;58179;48.776;9.124;2024-01-30T03:14:59;16.23;;;9.80;;
55913;SDS011;58179;48.776;9.124;2024-01-30T03:17:25;14.35;;;9.10;;
55913;SDS011;58179;48.776;9.124;2024-01-30T03:19:51;11.85;;;8.43;;
55913;SDS011;58179;48.776;9.124;2024-01-30T03:22:17;13.25;;;8.48;;
55913;SDS011;58179;48.776;9.124;2024-01-30T03:24:43;15.68;;;9.88;;
55913;SDS011;58179;48.776;9.124;2024-01-30T03:27:09;14.65;;;9.23;;
55913;SDS011;58179;48.776;9.124;2024-01-30T03:29:37;13.45;;;9.23;;
55913;SDS011;58179;48.776;9.124;2024-01-30T03:32:03;14.75;;;9.50;;
55913;SDS011;58179;48.776;9.124;2024-01-30T03:34:30;16.08;;;10.18;;
55913;SDS011;58179;48.776;9.124;2024-01-30T03:36:56;17.60;;;10.43;;
55913;SDS011;58179;48.776;9.124;2024-01-30T03:39:22;14.43;;;9.55;;
55913;SDS011;58179;48.776;9.124;2024-01-30T03:41:48;14.23;;;9.45;;
55913;SDS011;58179;48.776;9.124;2024-01-30T03:44:14;16.58;;;9.77;;
55913;SDS011;58179;48.776;9.124;2024-01-30T03:46:42;17.02;;;10.10;;
55913;SDS011;58179;48.776;9.124;2024-01-30T03:49:09;15.00;;;9.50;;
55913;SDS011;58179;48.776;9.124;2024-01-30T03:51:35;18.67;;;10.38;;
55913;SDS011;58179;48.776;9.124;2024-01-30T03:54:01;16.45;;;10.55;;
55913;SDS011;58179;48.776;9.124;2024-01-30T03:56:27;13.27;;;8.85;;
55913;SDS011;58179;48.776;9.124;2024-01-30T03:58:53;12.85;;;8.73;;
55913;SDS011;58179;48.776;9.124;2024-01-30T04:01:21;12.82;;;8.77;;
55913;SDS011;58179;48.776;9.124;2024-01-30T04:03:48;14.88;;;9.10;;
55913;SDS011;58179;48.776;9.124;2024-01-30T04:06:14;13.90;;;9.40;;
55913;SDS011;58179;48.776;9.124;2024-01-30T04:08:41;11.55;;;7.95;;
55913;SDS011;58179;48.776;9.124;2024-01-30T04:11:07;12.88;;;9.30;;
55913;SDS011;58179;48.776;9.124;2024-01-30T04:13:33;14.38;;;9.27;;
55913;SDS011;58179;48.776;9.124;2024-01-30T04:15:59;14.88;;;10.10;;
55913;SDS011;58179;48.776;9.124;2024-01-30T04:18:28;16.83;;;9.90;;
55913;SDS011;58179;48.776;9.124;2024-01-30T04:20:56;11.38;;;8.25;;
55913;SDS011;58179;48.776;9.124;2024-01-30T04:23:22;12.82;;;8.75;;
55913;SDS011;58179;48.776;9.124;2024-01-30T04:25:48;13.30;;;8.52;;
55913;SDS011;58179;48.776;9.124;2024-01-30T04:28:14;15.02;;;9.40;;
55913;SDS011;58179;48.776;9.124;2024-01-30T04:30:41;15.48;;;10.10;;
55913;SDS011;58179;48.776;9.124;2024-01-30T04:33:07;13.55;;;9.20;;
55913;SDS011;58179;48.776;9.124;2024-01-30T04:35:33;11.98;;;7.85;;
55913;SDS011;58179;48.776;9.124;2024-01-30T04:38:00;12.88;;;7.88;;
55913;SDS011;58179;48.776;9.124;2024-01-30T04:40:26;9.90;;;7.85;;
55913;SDS011;58179;48.776;9.124;2024-01-30T04:42:53;11.43;;;8.10;;
55913;SDS011;58179;48.776;9.124;2024-01-30T04:45:19;14.48;;;9.23;;
55913;SDS011;58179;48.776;9.124;2024-01-30T04:47:45;14.05;;;8.85;;
55913;SDS011;58179;48.776;9.124;2024-01-30T04:50:11;17.25;;;10.07;;
55913;SDS011;58179;48.776;9.124;2024-01-30T04:52:37;18.77;;;10.60;;
55913;SDS011;58179;48.776;9.124;2024-01-30T04:55:05;14.95;;;9.80;;
55913;SDS011;58179;48.776;9.124;2024-01-30T04:57:32;13.13;;;8.68;;
55913;SDS011;58179;48.776;9.124;2024-01-30T04:59:58;14.45;;;8.57;;
55913;SDS011;58179;48.776;9.124;2024-01-30T05:02:24;13.02;;;8.23;;
55913;SDS011;58179;48.776;9.124;2024-01-30T05:04:51;14.80;;;9.00;;
55913;SDS011;58179;48.776;9.124;2024-01-30T05:07:17;13.93;;;8.52;;
55913;SDS011;58179;48.776;9.124;2024-01-30T05:09:43;12.18;;;8.48;;
55913;SDS011;58179;48.776;9.124;2024-01-30T05:12:11;11.13;;;7.50;;
55913;SDS011;58179;48.776;9.124;2024-01-30T05:14:37;13.45;;;8.23;;
55913;SDS011;58179;48.776;9.124;2024-01-30T05:17:03;9.95;;;7.55;;
55913;SDS011;58179;48.776;9.124;2024-01-30T05:19:29;11.02;;;7.35;;
55913;SDS011;58179;48.776;9.124;2024-01-30T05:21:55;11.55;;;7.97;;
55913;SDS011;58179;48.776;9.124;2024-01-30T05:24:21;11.30;;;7.75;;
55913;SDS011;58179;48.776;9.124;2024-01-30T05:26:48;12.43;;;8.00;;
55913;SDS011;58179;48.776;9.124;2024-01-30T05:29:17;11.80;;;7.95;;
55913;SDS011;58179;48.776;9.124;2024-01-30T05:31:43;11.02;;;7.53;;
55913;SDS011;58179;48.776;9.124;2024-01-30T05:34:09;9.63;;;7.07;;
55913;SDS011;58179;48.776;9.124;2024-01-30T05:36:35;11.45;;;7.60;;
55913;SDS011;58179;48.776;9.124;2024-01-30T05:39:02;10.40;;;7.65;;
55913;SDS011;58179;48.776;9.124;2024-01-30T05:41:28;11.48;;;7.70;;
55913;SDS011;58179;48.776;9.124;2024-01-30T05:43:54;12.35;;;8.23;;
55913;SDS011;58179;48.776;9.124;2024-01-30T05:46:21;13.32;;;8.27;;
55913;SDS011;58179;48.776;9.124;2024-01-30T05:48:48;11.57;;;7.40;;
55913;SDS011;58179;48.776;9.124;2024-01-30T05:51:14;9.55;;;6.85;;
55913;SDS011;58179;48.776;9.124;2024-01-30T05:53:40;11.13;;;7.25;;
55913;SDS011;58179;48.776;9.124;2024-01-30T05:56:06;10.95;;;7.45;;
55913;SDS011;58179;48.776;9.124;2024-01-30T05:58:32;9.90;;;7.50;;
55913;SDS011;58179;48.776;9.124;2024-01-30T06:00:58;11.05;;;7.28;;
55913;SDS011;58179;48.776;9.124;2024-01-30T06:03:26;12.23;;;8.23;;
55913;SDS011;58179;48.776;9.124;2024-01-30T06:05:52;12.52;;;8.00;;
55913;SDS011;58179;48.776;9.124;2024-01-30T06:08:18;11.07;;;8.02;;
55913;SDS011;58179;48.776;9.124;2024-01-30T06:10:44;9.70;;;7.68;;
55913;SDS011;58179;48.776;9.124;2024-01-30T06:13:11;14.35;;;8.25;;
55913;SDS011;58179;48.776;9.124;2024-01-30T06:15:37;12.57;;;8.50;;
55913;SDS011;58179;48.776;9.124;2024-01-30T06:18:03;11.02;;;7.97;;
55913;SDS011;58179;48.776;9.124;2024-01-30T06:20:31;13.40;;;8.82;;
55913;SDS011;58179;48.776;9.124;2024-01-30T06:22:57;14.98;;;8.50;;
55913;SDS011;58179;48.776;9.124;2024-01-30T06:25:23;13.93;;;8.43;;
55913;SDS011;58179;48.776;9.124;2024-01-30T06:27:49;12.45;;;8.45;;
55913;SDS011;58179;48.776;9.124;2024-01-30T06:30:15;12.48;;;8.10;;
55913;SDS011;58179;48.776;9.124;2024-01-30T06:32:42;13.15;;;8.57;;
55913;SDS011;58179;48.776;9.124;2024-01-30T06:35:08;11.65;;;7.82;;
55913;SDS011;58179;48.776;9.124;2024-01-30T06:37:36;10.93;;;7.90;;
55913;SDS011;58179;48.776;9.124;2024-01-30T06:40:03;11.40;;;7.70;;
55913;SDS011;58179;48.776;9.124;2024-01-30T06:42:30;11.57;;;7.85;;
55913;SDS011;58179;48.776;9.124;2024-01-30T06:44:56;13.00;;;8.32;;
55913;SDS011;58179;48.776;9.124;2024-01-30T06:47:22;13.23;;;8.23;;
55913;SDS011;58179;48.776;9.124;2024-01-30T06:49:48;11.97;;;7.40;;
55913;SDS011;58179;48.776;9.124;2024-01-30T06:52:14;10.05;;;7.00;;
55913;SDS011;58179;48.776;9.124;2024-01-30T06:54:42;11.30;;;7.75;;
55913;SDS011;58179;48.776;9.124;2024-01-30T06:57:08;11.57;;;7.20;;
55913;SDS011;58179;48.776;9.124;2024-01-30T06:59:37;12.63;;;7.43;;
55913;SDS011;58179;48.776;9.124;2024-01-30T07:02:12;11.38;;;7.35;;
55913;SDS011;58179;48.776;9.124;2024-01-30T07:04:38;10.57;;;6.70;;
55913;SDS011;58179;48.776;9.124;2024-01-30T07:07:05;11.65;;;7.35;;
55913;SDS011;58179;48.776;9.124;2024-01-30T07:09:36;11.52;;;7.78;;
55913;SDS011;58179;48.776;9.124;2024-01-30T07:12:04;12.80;;;7.85;;
55913;SDS011;58179;48.776;9.124;2024-01-30T07:14:31;13.55;;;7.95;;
55913;SDS011;58179;48.776;9.124;2024-01-30T07:16:57;11.90;;;7.82;;
55913;SDS011;58179;48.776;9.124;2024-01-30T07:19:23;11.00;;;7.45;;
55913;SDS011;58179;48.776;9.124;2024-01-30T07:21:49;12.52;;;8.40;;
55913;SDS011;58179;48.776;9.124;2024-01-30T07:24:15;13.55;;;8.85;;
55913;SDS011;58179;48.776;9.124;2024-01-30T07:26:43;12.35;;;8.52;;
55913;SDS011;58179;48.776;9.124;2024-01-30T07:29:10;15.55;;;8.48;;
55913;SDS011;58179;48.776;9.124;2024-01-30T07:31:36;12.10;;;8.40;;
55913;SDS011;58179;48.776;9.124;2024-01-30T07:34:03;12.57;;;7.90;;
55913;SDS011;58179;48.776;9.124;2024-01-30T07:36:29;12.38;;;8.48;;
55913;SDS011;58179;48.776;9.124;2024-01-30T07:38:55;15.07;;;8.48;;
55913;SDS011;58179;48.776;9.124;2024-01-30T07:41:21;12.65;;;8.60;;
55913;SDS011;58179;48.776;9.124;2024-01-30T07:43:49;12.38;;;7.88;;
55913;SDS011;58179;48.776;9.124;2024-01-30T07:46:16;12.30;;;8.50;;
55913;SDS011;58179;48.776;9.124;2024-01-30T07:48:43;11.48;;;7.95;;
55913;SDS011;58179;48.776;9.124;2024-01-30T07:51:09;9.80;;;7.45;;
55913;SDS011;58179;48.776;9.124;2024-01-30T07:53:35;10.95;;;7.38;;
55913;SDS011;58179;48.776;9.124;2024-01-30T07:56:01;10.70;;;6.82;;
55913;SDS011;58179;48.776;9.124;2024-01-30T07:58:27;11.52;;;7.88;;
55913;SDS011;58179;48.776;9.124;2024-01-30T08:00:53;12.60;;;7.90;;
55913;SDS011;58179;48.776;9.124;2024-01-30T08:03:24;11.47;;;7.60;;
55913;SDS011;58179;48.776;9.124;2024-01-30T08:05:50;10.35;;;7.00;;
55913;SDS011;58179;48.776;9.124;2024-01-30T08:08:16;13.13;;;7.05;;
55913;SDS011;58179;48.776;9.124;2024-01-30T08:10:43;8.57;;;6.15;;
55913;SDS011;58179;48.776;9.124;2024-01-30T08:13:09;8.25;;;5.97;;
55913;SDS011;58179;48.776;9.124;2024-01-30T08:15:35;6.65;;;5.20;;
55913;SDS011;58179;48.776;9.124;2024-01-30T08:18:01;6.60;;;4.97;;
55913;SDS011;58179;48.776;9.124;2024-01-30T08:20:29;6.47;;;4.75;;
55913;SDS011;58179;48.776;9.124;2024-01-30T08:22:55;5.72;;;4.40;;
55913;SDS011;58179;48.776;9.124;2024-01-30T08:25:21;8.25;;;4.90;;
55913;SDS011;58179;48.776;9.124;2024-01-30T08:27:47;5.32;;;4.80;;
55913;SDS011;58179;48.776;9.124;2024-01-30T08:30:14;5.07;;;4.45;;
55913;SDS011;58179;48.776;9.124;2024-01-30T08:32:40;6.55;;;4.53;;
55913;SDS011;58179;48.776;9.124;2024-01-30T08:35:06;4.95;;;4.28;;
55913;SDS011;58179;48.776;9.124;2024-01-30T08:37:35;7.57;;;5.05;;
55913;SDS011;58179;48.776;9.124;2024-01-30T08:40:01;5.57;;;4.65;;
55913;SDS011;58179;48.776;9.124;2024-01-30T08:42:29;5.65;;;4.45;;
55913;SDS011;58179;48.776;9.124;2024-01-30T08:44:55;5.13;;;4.50;;
55913;SDS011;58179;48.776;9.124;2024-01-30T08:47:21;4.53;;;3.85;;
55913;SDS011;58179;48.776;9.124;2024-01-30T08:49:47;6.55;;;4.00;;
55913;SDS011;58179;48.776;9.124;2024-01-30T08:52:14;4.63;;;3.85;;
55913;SDS011;58179;48.776;9.124;2024-01-30T08:54:41;4.68;;;3.42;;
55913;SDS011;58179;48.776;9.124;2024-01-30T08:57:07;3.90;;;3.28;;
55913;SDS011;58179;48.776;9.124;2024-01-30T08:59:34;4.63;;;3.72;;
55913;SDS011;58179;48.776;9.124;2024-01-30T09:02:00;4.72;;;3.50;;
55913;SDS011;58179;48.776;9.124;2024-01-30T09:04:26;6.10;;;3.67;;
55913;SDS011;58179;48.776;9.124;2024-01-30T09:06:52;4.00;;;3.20;;
55913;SDS011;58179;48.776;9.124;2024-01-30T09:09:18;5.28;;;3.47;;
55913;SDS011;58179;48.776;9.124;2024-01-30T09:11:47;5.07;;;3.00;;
55913;SDS011;58179;48.776;9.124;2024-01-30T09:14:13;3.72;;;2.92;;
55913;SDS011;58179;48.776;9.124;2024-01-30T09:16:39;3.40;;;2.90;;
55913;SDS011;58179;48.776;9.124;2024-01-30T09:19:05;4.22;;;3.13;;
55913;SDS011;58179;48.776;9.124;2024-01-30T09:21:31;4.18;;;2.83;;
55913;SDS011;58179;48.776;9.124;2024-01-30T09:24:01;7.85;;;3.80;;
55913;SDS011;58179;48.776;9.124;2024-01-30T09:26:30;4.38;;;3.30;;
55913;SDS011;58179;48.776;9.124;2024-01-30T09:28:58;4.15;;;2.88;;
55913;SDS011;58179;48.776;9.124;2024-01-30T09:31:24;3.47;;;2.50;;
55913;SDS011;58179;48.776;9.124;2024-01-30T09:33:50;4.32;;;2.60;;
55913;SDS011;58179;48.776;9.124;2024-01-30T09:36:18;3.35;;;2.58;;
55913;SDS011;58179;48.776;9.124;2024-01-30T09:38:45;3.53;;;2.83;;
55913;SDS011;58179;48.776;9.124;2024-01-30T09:41:11;3.90;;;2.65;;
55913;SDS011;58179;48.776;9.124;2024-01-30T09:43:39;5.72;;;3.88;;
55913;SDS011;58179;48.776;9.124;2024-01-30T09:46:10;5.93;;;3.58;;
55913;SDS011;58179;48.776;9.124;2024-01-30T09:48:39;5.07;;;3.45;;
55913;SDS011;58179;48.776;9.124;2024-01-30T09:51:08;5.97;;;3.83;;
55913;SDS011;58179;48.776;9.124;2024-01-30T09:53:34;4.38;;;3.72;;
55913;SDS011;58179;48.776;9.124;2024-01-30T09:56:01;4.43;;;3.40;;
55913;SDS011;58179;48.776;9.124;2024-01-30T09:58:29;3.63;;;3.00;;
55913;SDS011;58179;48.776;9.124;2024-01-30T10:00:55;3.78;;;2.65;;
55913;SDS011;58179;48.776;9.124;2024-01-30T10:03:22;3.47;;;2.97;;
55913;SDS011;58179;48.776;9.124;2024-01-30T10:05:50;5.30;;;2.80;;
55913;SDS011;58179;48.776;9.124;2024-01-30T10:08:17;4.35;;;2.72;;
55913;SDS011;58179;48.776;9.124;2024-01-30T10:10:46;3.70;;;2.72;;
55913;SDS011;58179;48.776;9.124;2024-01-30T10:13:13;2.83;;;2.50;;
55913;SDS011;58179;48.776;9.124;2024-01-30T10:15:39;5.05;;;2.92;;
55913;SDS011;58179;48.776;9.124;2024-01-30T10:18:06;2.80;;;2.33;;
55913;SDS011;58179;48.776;9.124;2024-01-30T10:20:35;4.45;;;2.40;;
55913;SDS011;58179;48.776;9.124;2024-01-30T10:23:01;3.78;;;2.60;;
55913;SDS011;58179;48.776;9.124;2024-01-30T10:25:28;5.60;;;3.40;;
55913;SDS011;58179;48.776;9.124;2024-01-30T10:27:56;4.80;;;3.20;;
55913;SDS011;58179;48.776;9.124;2024-01-30T10:30:23;5.75;;;3.58;;
55913;SDS011;58179;48.776;9.124;2024-01-30T10:32:49;5.43;;;3.25;;
55913;SDS011;58179;48.776;9.124;2024-01-30T10:35:16;5.20;;;3.10;;
55913;SDS011;58179;48.776;9.124;2024-01-30T10:37:44;4.85;;;3.40;;
55913;SDS011;58179;48.776;9.124;2024-01-30T10:40:13;5.28;;;3.00;;
55913;SDS011;58179;48.776;9.124;2024-01-30T10:42:45;4.53;;;3.20;;
55913;SDS011;58179;48.776;9.124;2024-01-30T10:45:11;4.97;;;3.50;;
55913;SDS011;58179;48.776;9.124;2024-01-30T10:47:40;6.50;;;3.40;;
55913;SDS011;58179;48.776;9.124;2024-01-30T10:50:08;7.47;;;3.40;;
55913;SDS011;58179;48.776;9.124;2024-01-30T10:52:35;5.63;;;3.28;;
55913;SDS011;58179;48.776;9.124;2024-01-30T10:55:04;6.75;;;3.63;;
55913;SDS011;58179;48.776;9.124;2024-01-30T10:57:32;5.60;;;3.22;;
55913;SDS011;58179;48.776;9.124;2024-01-30T11:00:01;4.28;;;3.10;;
55913;SDS011;58179;48.776;9.124;2024-01-30T11:02:35;4.05;;;2.80;;
55913;SDS011;58179;48.776;9.124;2024-01-30T11:05:04;4.78;;;3.00;;
55913;SDS011;58179;48.776;9.124;2024-01-30T11:07:30;4.53;;;3.10;;
55913;SDS011;58179;48.776;9.124;2024-01-30T11:09:59;4.05;;;2.90;;
55913;SDS011;58179;48.776;9.124;2024-01-30T11:12:29;5.72;;;3.05;;
55913;SDS011;58179;48.776;9.124;2024-01-30T11:15:01;4.97;;;3.10;;
55913;SDS011;58179;48.776;9.124;2024-01-30T11:20:19;4.78;;;3.10;;
55913;SDS011;58179;48.776;9.124;2024-01-30T11:22:47;3.92;;;2.75;;
55913;SDS011;58179;48.776;9.124;2024-01-30T11:25:16;4.30;;;3.10;;
55913;SDS011;58179;48.776;9.124;2024-01-30T11:27:45;5.63;;;3.03;;
55913;SDS011;58179;48.776;9.124;2024-01-30T11:30:20;5.03;;;3.10;;
55913;SDS011;58179;48.776;9.124;2024-01-30T11:32:57;3.50;;;2.83;;
55913;SDS011;58179;48.776;9.124;2024-01-30T11:35:29;6.35;;;3.15;;
55913;SDS011;58179;48.776;9.124;2024-01-30T11:37:57;4.22;;;2.85;;
55913;SDS011;58179;48.776;9.124;2024-01-30T11:40:24;4.88;;;3.05;;
55913;SDS011;58179;48.776;9.124;2024-01-30T11:42:54;4.53;;;3.10;;
55913;SDS011;58179;48.776;9.124;2024-01-30T11:45:21;4.03;;;2.70;;
55913;SDS011;58179;48.776;9.124;2024-01-30T11:47:47;4.05;;;2.90;;
55913;SDS011;58179;48.776;9.124;2024-01-30T11:50:14;5.15;;;3.03;;
55913;SDS011;58179;48.776;9.124;2024-01-30T11:52:41;5.07;;;2.95;;
55913;SDS011;58179;48.776;9.124;2024-01-30T11:55:08;4.35;;;2.53;;
55913;SDS011;58179;48.776;9.124;2024-01-30T11:57:35;3.63;;;2.60;;
55913;SDS011;58179;48.776;9.124;2024-01-30T12:00:03;4.20;;;2.70;;
55913;SDS011;58179;48.776;9.124;2024-01-30T12:02:35;3.90;;;2.42;;
55913;SDS011;58179;48.776;9.124;2024-01-30T12:05:03;2.88;;;2.45;;
55913;SDS011;58179;48.776;9.124;2024-01-30T12:07:29;3.20;;;2.47;;
55913;SDS011;58179;48.776;9.124;2024-01-30T12:09:56;4.20;;;2.58;;
55913;SDS011;58179;48.776;9.124;2024-01-30T12:12:22;4.80;;;2.78;;
55913;SDS011;58179;48.776;9.124;2024-01-30T12:14:50;4.63;;;2.90;;
55913;SDS011;58179;48.776;9.124;2024-01-30T12:17:24;7.60;;;2.95;;
55913;SDS011;58179;48.776;9.124;2024-01-30T12:20:02;7.22;;;2.95;;
55913;SDS011;58179;48.776;9.124;2024-01-30T12:22:29;4.72;;;3.00;;
55913;SDS011;58179;48.776;9.124;2024-01-30T12:24:55;4.03;;;2.78;;
55913;SDS011;58179;48.776;9.124;2024-01-30T12:27:22;4.50;;;2.70;;
55913;SDS011;58179;48.776;9.124;2024-01-30T12:29:48;3.03;;;2.42;;
55913;SDS011;58179;48.776;9.124;2024-01-30T12:32:20;3.78;;;2.67;;
55913;SDS011;58179;48.776;9.124;2024-01-30T12:34:49;3.55;;;2.45;;
55913;SDS011;58179;48.776;9.124;2024-01-30T12:37:15;4.10;;;2.50;;
55913;SDS011;58179;48.776;9.124;2024-01-30T12:39:46;2.53;;;2.10;;
55913;SDS011;58179;48.776;9.124;2024-01-30T12:42:13;2.75;;;2.20;;
55913;SDS011;58179;48.776;9.124;2024-01-30T12:44:39;3.45;;;2.42;;
55913;SDS011;58179;48.776;9.124;2024-01-30T12:47:08;2.83;;;2.35;;
55913;SDS011;58179;48.776;9.124;2024-01-30T12:49:36;4.10;;;2.40;;
55913;SDS011;58179;48.776;9.124;2024-01-30T12:52:03;3.78;;;2.40;;
55913;SDS011;58179;48.776;9.124;2024-01-30T12:54:29;4.00;;;2.63;;
55913;SDS011;58179;48.776;9.124;2024-01-30T12:56:56;5.68;;;2.80;;
55913;SDS011;58179;48.776;9.124;2024-01-30T12:59:22;3.55;;;2.50;;
55913;SDS011;58179;48.776;9.124;2024-01-30T13:01:49;6.20;;;2.83;;
55913;SDS011;58179;48.776;9.124;2024-01-30T13:04:15;3.80;;;2.67;;
55913;SDS011;58179;48.776;9.124;2024-01-30T13:06:43;3.85;;;2.38;;
55913;SDS011;58179;48.776;9.124;2024-01-30T13:09:09;4.20;;;2.42;;
55913;SDS011;58179;48.776;9.124;2024-01-30T13:11:35;2.95;;;2.05;;
55913;SDS011;58179;48.776;9.124;2024-01-30T13:14:01;3.03;;;2.28;;
55913;SDS011;58179;48.776;9.124;2024-01-30T13:16:28;2.97;;;2.15;;
55913;SDS011;58179;48.776;9.124;2024-01-30T13:18:54;3.80;;;2.50;;
55913;SDS011;58179;48.776;9.124;2024-01-30T13:21:20;4.18;;;2.20;;
55913;SDS011;58179;48.776;9.124;2024-01-30T13:23:48;2.20;;;2.00;;
55913;SDS011;58179;48.776;9.124;2024-01-30T13:26:18;1.90;;;1.70;;
55913;SDS011;58179;48.776;9.124;2024-01-30T13:28:44;2.05;;;1.60;;
55913;SDS011;58179;48.776;9.124;2024-01-30T13:31:11;1.88;;;1.55;;
55913;SDS011;58179;48.776;9.124;2024-01-30T13:33:37;2.55;;;1.88;;
55913;SDS011;58179;48.776;9.124;2024-01-30T13:36:04;3.65;;;2.50;;
55913;SDS011;58179;48.776;9.124;2024-01-30T13:38:31;2.70;;;2.10;;
55913;SDS011;58179;48.776;9.124;2024-01-30T13:40:59;4.82;;;2.20;;
55913;SDS011;58179;48.776;9.124;2024-01-30T13:43:25;3.22;;;2.38;;
55913;SDS011;58179;48.776;9.124;2024-01-30T13:45:51;3.95;;;2.50;;
55913;SDS011;58179;48.776;9.124;2024-01-30T13:48:19;4.25;;;2.75;;
55913;SDS011;58179;48.776;9.124;2024-01-30T13:50:45;4.38;;;3.33;;
55913;SDS011;58179;48.776;9.124;2024-01-30T13:53:11;5.93;;;2.92;;
55913;SDS011;58179;48.776;9.124;2024-01-30T13:55:38;5.35;;;3.70;;
55913;SDS011;58179;48.776;9.124;2024-01-30T13:58:05;4.75;;;3.63;;
55913;SDS011;58179;48.776;9.124;2024-01-30T14:00:32;7.15;;;3.92;;
55913;SDS011;58179;48.776;9.124;2024-01-30T14:02:59;6.75;;;3.90;;
55913;SDS011;58179;48.776;9.124;2024-01-30T14:05:25;5.22;;;3.90;;
55913;SDS011;58179;48.776;9.124;2024-01-30T14:07:55;5.03;;;4.07;;
55913;SDS011;58179;48.776;9.124;2024-01-30T14:10:22;7.15;;;4.43;;
55913;SDS011;58179;48.776;9.124;2024-01-30T14:12:48;6.90;;;4.30;;
55913;SDS011;58179;48.776;9.124;2024-01-30T14:15:15;6.30;;;4.30;;
55913;SDS011;58179;48.776;9.124;2024-01-30T14:17:45;6.65;;;4.68;;
55913;SDS011;58179;48.776;9.124;2024-01-30T14:20:13;5.30;;;4.40;;
55913;SDS011;58179;48.776;9.124;2024-01-30T14:22:41;7.32;;;4.20;;
55913;SDS011;58179;48.776;9.124;2024-01-30T14:25:08;7.85;;;4.70;;
55913;SDS011;58179;48.776;9.124;2024-01-30T14:27:35;7.10;;;4.50;;
55913;SDS011;58179;48.776;9.124;2024-01-30T14:30:01;8.27;;;5.15;;
55913;SDS011;58179;48.776;9.124;2024-01-30T14:32:29;7.75;;;4.70;;
55913;SDS011;58179;48.776;9.124;2024-01-30T14:34:55;8.20;;;5.15;;
55913;SDS011;58179;48.776;9.124;2024-01-30T14:37:22;8.85;;;5.60;;
55913;SDS011;58179;48.776;9.124;2024-01-30T14:39:48;7.68;;;5.30;;